Ship Status Report: callsign BAREU51

sailwx.info

Track history (hours):
 
Tides and Currents Weather Stations Pressure Air Temp Water Temp Dewpoint Dewpoint Depression Visibility Wind Speed Wind Dir Waves Ship Positions

Callsign BAREU51 (name unknown)

Last reported at 2015-Aug-30 09:00 UTC. Time now 2015-Aug-30 12:01 UTC.
Position N 44°24' E 008°54'.

Barometer 1022.1 mb
Air temperature 26.2 ° C

Date/timePositionNaut miles runAvg speedWind from/ knotsBaromVisibWave heightAir tempDewpointWater temp
2015-Aug-30 09:00N 44°24' E 008°54'2019.9 1022.1 26.2
2015-Aug-30 08:00N 44°06' E 009°06'2625.5 1021.6 25.6
2015-Aug-30 07:00N 43°42' E 009°18'3131.2 1021.4 24.7
2015-Aug-30 06:00N 43°12' E 009°30'2625.6 1021.4 24.0
2015-Aug-30 05:00N 42°48' E 009°42'3030.3 1021.3 23.6
2015-Aug-30 04:00N 42°18' E 009°48'2424.4 1020.9 23.5
2015-Aug-30 03:00N 41°54' E 009°54'3030.0 1021.0 23.7
2015-Aug-30 02:00N 41°24' E 009°54'2424.4 1020.2 23.5
2015-Aug-30 01:00N 41°00' E 010°00'3030.0 1020.6 25.0
2015-Aug-30 00:00N 40°30' E 010°00'3030.3 1021.1 25.1
2015-Aug-29 23:00N 40°00' E 009°54'2424.4 1021.4 25.2
2015-Aug-29 22:00N 39°36' E 009°48'3030.0 1021.5 25.5
2015-Aug-29 21:00N 39°06' E 009°48'2625.8 1020.7 25.4
2015-Aug-29 20:00N 38°42' E 010°00'2625.8 1020.1 25.7
2015-Aug-29 19:00N 38°18' E 010°12'3030.4 1018.8 25.8
2015-Aug-29 18:00N 37°48' E 010°18'2625.8 1018.2 26.1
2015-Aug-29 17:00N 37°24' E 010°30'3030.4 1017.9 26.9
2015-Aug-29 16:00N 36°54' E 010°24'0 0.0 1017.9 29.7
2015-Aug-29 06:00N 36°54' E 010°24'1918.6 1019.3 25.7
2015-Aug-29 05:00N 37°12' E 010°30'2424.5 1018.7 25.7
2015-Aug-29 04:00N 37°36' E 010°24'1918.6 1018.5 25.7
2015-Aug-29 03:00N 37°54' E 010°18'1818.0 1018.6 25.5
2015-Aug-29 02:00N 38°12' E 010°18'2020.3 1018.9 25.3
2015-Aug-29 01:00N 38°30' E 010°06'2322.8 1019.2 25.2
2015-Aug-29 00:00N 38°48' E 009°48'2424.0 1019.6 25.5
2015-Aug-28 23:00N 39°12' E 009°48'1818.0 1020.4 25.6
2015-Aug-28 22:00N 39°30' E 009°48'2424.4 1020.7 25.5
2015-Aug-28 21:00N 39°54' E 009°54'2424.0 1020.5 25.5
2015-Aug-28 20:00N 40°18' E 009°54'2424.4 1020.0 25.4
2015-Aug-28 19:00N 40°42' E 010°00'2424.4 1019.5 25.4
2015-Aug-28 18:00N 41°06' E 009°54'2424.0 1019.4 24.3
2015-Aug-28 17:00N 41°30' E 009°54'2424.4 1019.8 25.1
2015-Aug-28 16:00N 41°54' E 009°48'2424.0 1020.1 25.9
2015-Aug-28 15:00N 42°18' E 009°48'1918.5 1020.0 26.3
2015-Aug-28 14:00N 42°36' E 009°42'2424.4 1020.3 26.6
2015-Aug-28 13:00N 43°00' E 009°36'2625.5 1020.3 26.4
2015-Aug-28 12:00N 43°24' E 009°24'1918.5 1020.7 26.0
2015-Aug-28 11:00N 43°42' E 009°18'2625.5 1020.8 25.7
2015-Aug-28 10:00N 44°06' E 009°06'20 1.2 1020.7 25.3
2015-Aug-27 18:00N 44°24' E 008°54'7 7.4 1017.7 25.0
2015-Aug-27 17:00N 44°18' E 009°00'2625.5 1016.9 25.1
2015-Aug-27 16:00N 43°54' E 009°12'2625.5 1017.3 25.3
2015-Aug-27 15:00N 43°30' E 009°24'1918.5 1017.4 25.0
2015-Aug-27 14:00N 43°12' E 009°30'2625.6 1017.2 24.5
2015-Aug-27 13:00N 42°48' E 009°42'2424.4 1017.4 25.5
2015-Aug-27 12:00N 42°24' E 009°48'3030.0 1017.7 26.1
2015-Aug-27 11:00N 41°54' E 009°48'2424.4 1017.9 25.4
2015-Aug-27 10:00N 41°30' E 009°54'3030.3 1018.3 25.2
2015-Aug-27 09:00N 41°00' E 010°00'2424.0 1018.4 24.9
2015-Aug-27 08:00N 40°36' E 010°00'3030.3 1017.8 24.4
2015-Aug-27 07:00N 40°06' E 009°54'2424.0 1017.1 24.7
2015-Aug-27 06:00N 39°42' E 009°54'3030.4 1016.6 24.8
2015-Aug-27 05:00N 39°12' E 009°48'2625.7 1016.1 24.9
2015-Aug-27 04:00N 38°48' E 010°00'3030.4 1015.4 25.0
2015-Aug-27 03:00N 38°18' E 010°06'2625.8 1015.3 24.8
2015-Aug-27 02:00N 37°54' E 010°18'2625.8 1015.5 25.0
2015-Aug-27 01:00N 37°30' E 010°30'3030.0 1015.8 25.6
2015-Aug-27 00:00N 37°00' E 010°30'15 1.7 1015.5 25.5
2015-Aug-26 15:00N 36°48' E 010°18'1312.9 1015.6 28.4
2015-Aug-26 14:00N 37°00' E 010°24'2424.5 1016.2 28.9
2015-Aug-26 13:00N 37°24' E 010°30'4422.2 1017.1 28.4
2015-Aug-26 11:00N 38°06' E 010°12'2424.5 1017.9 26.6
2015-Aug-26 10:00N 38°30' E 010°06'2625.8 1017.6 26.0
2015-Aug-26 09:00N 38°54' E 009°54'1918.6 1017.1 26.3
2015-Aug-26 08:00N 39°12' E 009°48'2424.0 1017.5 25.5
2015-Aug-26 07:00N 39°36' E 009°48'2424.4 1017.9 25.3
2015-Aug-26 06:00N 40°00' E 009°54'2424.0 1018.1 24.6
2015-Aug-26 05:00N 40°24' E 009°54'2424.4 1018.2 23.3
2015-Aug-26 04:00N 40°48' E 010°00'2424.4 1017.2 22.7
2015-Aug-26 03:00N 41°12' E 009°54'2424.0 1018.3 22.9
2015-Aug-26 02:00N 41°36' E 009°54'2424.4 1018.1 23.1
2015-Aug-26 01:00N 42°00' E 009°48'1818.0 1018.0 23.7
2015-Aug-26 00:00N 42°18' E 009°48'2424.4 1017.6 24.6
2015-Aug-25 23:00N 42°42' E 009°42'2424.4 1018.0 24.1
2015-Aug-25 22:00N 43°06' E 009°36'2625.5 1016.6 22.9
2015-Aug-25 21:00N 43°30' E 009°24'2020.0 1017.1 22.5
2015-Aug-25 20:00N 43°48' E 009°12'2625.5 1017.1 22.1
2015-Aug-25 19:00N 44°12' E 009°00'12 2.0 1016.5 22.9
2015-Aug-25 13:00N 44°24' E 009°00'2424.4 1016.2 25.1
2015-Aug-25 12:00N 44°00' E 009°06'2625.5 1015.8 23.6
2015-Aug-25 11:00N 43°36' E 009°18'2625.5 1015.5 23.8
2015-Aug-25 10:00N 43°12' E 009°30'3131.3 1014.6 24.3
2015-Aug-25 09:00N 42°42' E 009°42'2424.4 1014.7 27.6
2015-Aug-25 08:00N 42°18' E 009°48'3030.0 1015.2 25.6
2015-Aug-25 07:00N 41°48' E 009°48'2424.0 1014.9 25.8
2015-Aug-25 06:00N 41°24' E 009°48'2625.6 1011.4 24.2
2015-Aug-25 05:00N 41°00' E 010°00'3030.0 1013.4 24.0
2015-Aug-25 04:00N 40°30' E 010°00'3030.3 1014.7 25.1
2015-Aug-25 03:00N 40°00' E 009°54'2424.4 1014.8 25.8
2015-Aug-25 02:00N 39°36' E 009°48'3030.0 1014.6 26.1
2015-Aug-25 01:00N 39°06' E 009°48'2625.8 1014.6 25.9
2015-Aug-25 00:00N 38°42' E 010°00'2625.8 1016.1 25.1
2015-Aug-24 23:00N 38°18' E 010°12'2424.5 1017.4 25.7
2015-Aug-24 22:00N 37°54' E 010°18'3131.5 1017.9 24.4
2015-Aug-24 21:00N 37°24' E 010°30'2424.5 1012.0 22.0
2015-Aug-24 20:00N 37°00' E 010°24'12 1.3 1015.5 28.0
2015-Aug-24 11:00N 36°48' E 010°24'1312.9 1013.9 31.9
2015-Aug-24 10:00N 37°00' E 010°30'2424.0 1013.8 29.2
2015-Aug-24 09:00N 37°24' E 010°30'2625.8 1013.9 28.0
2015-Aug-24 08:00N 37°48' E 010°18'2424.5 1013.8 26.4
2015-Aug-24 07:00N 38°12' E 010°12'2020.3 1012.7 25.1
2015-Aug-24 06:00N 38°30' E 010°00'1918.6 1012.1 25.2
2015-Aug-24 05:00N 38°48' E 009°54'1918.6 1011.4 24.9
2015-Aug-24 04:00N 39°06' E 009°48'1918.6 1011.3 25.2
2015-Aug-24 03:00N 39°24' E 009°54'2424.0 1011.0 25.8
2015-Aug-24 02:00N 39°48' E 009°54'2424.4 1010.5 25.9
2015-Aug-24 01:00N 40°12' E 010°00'4824.0 1010.2 26.0
2015-Aug-23 23:00N 41°00' E 010°00'1918.6 1010.2 25.9
2015-Aug-23 22:00N 41°18' E 009°54'2424.0 1010.8 24.6
2015-Aug-23 21:00N 41°42' E 009°54'2424.4 1010.3 24.7
2015-Aug-23 20:00N 42°06' E 009°48'2424.0 1011.0 24.6
2015-Aug-23 19:00N 42°30' E 009°48'1918.5 1010.9 25.1
2015-Aug-23 18:00N 42°48' E 009°42'2625.6 1009.9 24.6
2015-Aug-23 17:00N 43°12' E 009°30'1918.5 1009.8 24.6
2015-Aug-23 16:00N 43°30' E 009°24'2625.5 1011.1 24.7
2015-Aug-23 15:00N 43°54' E 009°12'2625.5 1012.2 24.1
2015-Aug-23 14:00N 44°18' E 009°00'7 1.5 1012.8 24.5
2015-Aug-23 09:00N 44°24' E 008°54'1312.7 1014.1 23.6
2015-Aug-23 08:00N 44°12' E 009°00'2727.3 1013.6 23.3
2015-Aug-23 07:00N 43°48' E 009°18'3131.2 1012.6 23.4
2015-Aug-23 06:00N 43°18' E 009°30'2424.4 1013.2 24.3
2015-Aug-23 05:00N 42°54' E 009°36'3030.3 1013.4 23.6
2015-Aug-23 04:00N 42°24' E 009°42'2424.4 1013.2 23.7
2015-Aug-23 03:00N 42°00' E 009°48'3030.3 1013.7 23.6
2015-Aug-23 02:00N 41°30' E 009°54'2424.4 1013.7 22.7
2015-Aug-23 01:00N 41°06' E 010°00'3030.0 1014.2 24.5
2015-Aug-23 00:00N 40°36' E 010°00'3030.3 1014.9 25.0
2015-Aug-22 23:00N 40°06' E 009°54'2424.0 1015.3 24.9
2015-Aug-22 22:00N 39°42' E 009°54'3030.4 1015.3 25.1
2015-Aug-22 21:00N 39°12' E 009°48'2625.7 1015.9 24.1
2015-Aug-22 20:00N 38°48' E 010°00'3030.4 1016.0 23.9
2015-Aug-22 19:00N 38°18' E 010°06'2625.8 1016.1 24.5
2015-Aug-22 18:00N 37°54' E 010°18'2625.8 1015.3 25.1
2015-Aug-22 17:00N 37°30' E 010°30'3030.0 1014.9 25.5
2015-Aug-22 16:00N 37°00' E 010°30'8 0.8 1013.3 26.1
2015-Aug-22 06:00N 36°54' E 010°24'2424.5 1018.2 23.4
2015-Aug-22 05:00N 37°18' E 010°30'1818.0 1018.4 23.9
2015-Aug-22 04:00N 37°36' E 010°30'2020.3 1018.4 23.8
2015-Aug-22 03:00N 37°54' E 010°18'1918.6 1018.3 23.2
2015-Aug-22 02:00N 38°12' E 010°12'2625.8 1018.4 23.4
2015-Aug-22 01:00N 38°36' E 010°00'2424.5 1018.3 23.7
2015-Aug-22 00:00N 39°00' E 009°54'2424.0 1018.1 24.4
2015-Aug-21 23:00N 39°24' E 009°54'2424.0 1018.4 25.0
2015-Aug-21 22:00N 39°48' E 009°54'2424.0 1018.9 25.4
2015-Aug-21 21:00N 40°12' E 009°54'1918.6 1019.1 25.5
2015-Aug-21 20:00N 40°30' E 010°00'1818.0 1019.6 24.8
2015-Aug-21 19:00N 40°48' E 010°00'2020.2 1018.7 24.6
2015-Aug-21 18:00N 41°06' E 009°48'2424.4 1018.8 23.5
2015-Aug-21 17:00N 41°30' E 009°42'2424.0 1018.3 25.0
2015-Aug-21 16:00N 41°54' E 009°42'1918.5 1018.9 25.7
2015-Aug-21 15:00N 42°12' E 009°48'2424.4 1019.2 25.6
2015-Aug-21 14:00N 42°36' E 009°42'2424.4 1019.5 26.0
2015-Aug-21 13:00N 43°00' E 009°36'2625.5 1019.9 25.7
2015-Aug-21 12:00N 43°24' E 009°24'1918.5 1020.4 25.3
2015-Aug-21 11:00N 43°42' E 009°18'2625.5 1020.6 24.8
2015-Aug-21 10:00N 44°06' E 009°06'2019.9 1020.5 25.2
2015-Aug-21 09:00N 44°24' E 008°54'4 0.3 1020.7 25.4
2015-Aug-20 19:00N 44°24' E 009°00'1918.5 1019.3 23.6
2015-Aug-20 18:00N 44°06' E 009°06'2625.5 1018.2 23.6
2015-Aug-20 17:00N 43°42' E 009°18'2625.5 1018.1 23.5
2015-Aug-20 16:00N 43°18' E 009°30'2424.4 1018.8 24.0
2015-Aug-20 15:00N 42°54' E 009°36'2424.4 1018.7 25.1
2015-Aug-20 14:00N 42°30' E 009°42'2424.4 1018.6 25.1
2015-Aug-20 13:00N 42°06' E 009°48'2424.4 1019.0 25.6
2015-Aug-20 12:00N 41°42' E 009°54'2424.0 1019.3 25.3
2015-Aug-20 11:00N 41°18' E 009°54'2424.0 1018.7 24.3
2015-Aug-20 10:00N 40°54' E 009°54'3030.3 1018.5 25.8
2015-Aug-20 09:00N 40°24' E 010°00'   1019.4 26.0
Track history (hours):
 
Tides and Currents Weather Stations Pressure Air Temp Water Temp Dewpoint Dewpoint Depression Visibility Wind Speed Wind Dir Waves Ship Positions

Callsign BAREU51 (name unknown)

Last reported at 2015-Aug-30 09:00 UTC. Time now 2015-Aug-30 12:01 UTC.
Position N 44°24' E 008°54'.

Barometer 1022.1 mb
Air temperature 26.2 ° C

Date/timePositionNaut miles runAvg speedWind from/ knotsBaromVisibWave heightAir tempDewpointWater temp
2015-Aug-30 09:00N 44°24' E 008°54'2019.9 1022.1 26.2
2015-Aug-30 08:00N 44°06' E 009°06'2625.5 1021.6 25.6
2015-Aug-30 07:00N 43°42' E 009°18'3131.2 1021.4 24.7
2015-Aug-30 06:00N 43°12' E 009°30'2625.6 1021.4 24.0
2015-Aug-30 05:00N 42°48' E 009°42'3030.3 1021.3 23.6
2015-Aug-30 04:00N 42°18' E 009°48'2424.4 1020.9 23.5
2015-Aug-30 03:00N 41°54' E 009°54'3030.0 1021.0 23.7
2015-Aug-30 02:00N 41°24' E 009°54'2424.4 1020.2 23.5
2015-Aug-30 01:00N 41°00' E 010°00'3030.0 1020.6 25.0
2015-Aug-30 00:00N 40°30' E 010°00'3030.3 1021.1 25.1
2015-Aug-29 23:00N 40°00' E 009°54'2424.4 1021.4 25.2
2015-Aug-29 22:00N 39°36' E 009°48'3030.0 1021.5 25.5
2015-Aug-29 21:00N 39°06' E 009°48'2625.8 1020.7 25.4
2015-Aug-29 20:00N 38°42' E 010°00'2625.8 1020.1 25.7
2015-Aug-29 19:00N 38°18' E 010°12'3030.4 1018.8 25.8
2015-Aug-29 18:00N 37°48' E 010°18'2625.8 1018.2 26.1
2015-Aug-29 17:00N 37°24' E 010°30'3030.4 1017.9 26.9
2015-Aug-29 16:00N 36°54' E 010°24'0 0.0 1017.9 29.7
2015-Aug-29 06:00N 36°54' E 010°24'1918.6 1019.3 25.7
2015-Aug-29 05:00N 37°12' E 010°30'2424.5 1018.7 25.7
2015-Aug-29 04:00N 37°36' E 010°24'1918.6 1018.5 25.7
2015-Aug-29 03:00N 37°54' E 010°18'1818.0 1018.6 25.5
2015-Aug-29 02:00N 38°12' E 010°18'2020.3 1018.9 25.3
2015-Aug-29 01:00N 38°30' E 010°06'2322.8 1019.2 25.2
2015-Aug-29 00:00N 38°48' E 009°48'2424.0 1019.6 25.5
2015-Aug-28 23:00N 39°12' E 009°48'1818.0 1020.4 25.6
2015-Aug-28 22:00N 39°30' E 009°48'2424.4 1020.7 25.5
2015-Aug-28 21:00N 39°54' E 009°54'2424.0 1020.5 25.5
2015-Aug-28 20:00N 40°18' E 009°54'2424.4 1020.0 25.4
2015-Aug-28 19:00N 40°42' E 010°00'2424.4 1019.5 25.4
2015-Aug-28 18:00N 41°06' E 009°54'2424.0 1019.4 24.3
2015-Aug-28 17:00N 41°30' E 009°54'2424.4 1019.8 25.1
2015-Aug-28 16:00N 41°54' E 009°48'2424.0 1020.1 25.9
2015-Aug-28 15:00N 42°18' E 009°48'1918.5 1020.0 26.3
2015-Aug-28 14:00N 42°36' E 009°42'2424.4 1020.3 26.6
2015-Aug-28 13:00N 43°00' E 009°36'2625.5 1020.3 26.4
2015-Aug-28 12:00N 43°24' E 009°24'1918.5 1020.7 26.0
2015-Aug-28 11:00N 43°42' E 009°18'2625.5 1020.8 25.7
2015-Aug-28 10:00N 44°06' E 009°06'20 1.2 1020.7 25.3
2015-Aug-27 18:00N 44°24' E 008°54'7 7.4 1017.7 25.0
2015-Aug-27 17:00N 44°18' E 009°00'2625.5 1016.9 25.1
2015-Aug-27 16:00N 43°54' E 009°12'2625.5 1017.3 25.3
2015-Aug-27 15:00N 43°30' E 009°24'1918.5 1017.4 25.0
2015-Aug-27 14:00N 43°12' E 009°30'2625.6 1017.2 24.5
2015-Aug-27 13:00N 42°48' E 009°42'2424.4 1017.4 25.5
2015-Aug-27 12:00N 42°24' E 009°48'3030.0 1017.7 26.1
2015-Aug-27 11:00N 41°54' E 009°48'2424.4 1017.9 25.4
2015-Aug-27 10:00N 41°30' E 009°54'3030.3 1018.3 25.2
2015-Aug-27 09:00N 41°00' E 010°00'2424.0 1018.4 24.9
2015-Aug-27 08:00N 40°36' E 010°00'3030.3 1017.8 24.4
2015-Aug-27 07:00N 40°06' E 009°54'2424.0 1017.1 24.7
2015-Aug-27 06:00N 39°42' E 009°54'3030.4 1016.6 24.8
2015-Aug-27 05:00N 39°12' E 009°48'2625.7 1016.1 24.9
2015-Aug-27 04:00N 38°48' E 010°00'3030.4 1015.4 25.0
2015-Aug-27 03:00N 38°18' E 010°06'2625.8 1015.3 24.8
2015-Aug-27 02:00N 37°54' E 010°18'2625.8 1015.5 25.0
2015-Aug-27 01:00N 37°30' E 010°30'3030.0 1015.8 25.6
2015-Aug-27 00:00N 37°00' E 010°30'15 1.7 1015.5 25.5
2015-Aug-26 15:00N 36°48' E 010°18'1312.9 1015.6 28.4
2015-Aug-26 14:00N 37°00' E 010°24'2424.5 1016.2 28.9
2015-Aug-26 13:00N 37°24' E 010°30'4422.2 1017.1 28.4
2015-Aug-26 11:00N 38°06' E 010°12'2424.5 1017.9 26.6
2015-Aug-26 10:00N 38°30' E 010°06'2625.8 1017.6 26.0
2015-Aug-26 09:00N 38°54' E 009°54'1918.6 1017.1 26.3
2015-Aug-26 08:00N 39°12' E 009°48'2424.0 1017.5 25.5
2015-Aug-26 07:00N 39°36' E 009°48'2424.4 1017.9 25.3
2015-Aug-26 06:00N 40°00' E 009°54'2424.0 1018.1 24.6
2015-Aug-26 05:00N 40°24' E 009°54'2424.4 1018.2 23.3
2015-Aug-26 04:00N 40°48' E 010°00'2424.4 1017.2 22.7
2015-Aug-26 03:00N 41°12' E 009°54'2424.0 1018.3 22.9
2015-Aug-26 02:00N 41°36' E 009°54'2424.4 1018.1 23.1
2015-Aug-26 01:00N 42°00' E 009°48'1818.0 1018.0 23.7
2015-Aug-26 00:00N 42°18' E 009°48'2424.4 1017.6 24.6
2015-Aug-25 23:00N 42°42' E 009°42'2424.4 1018.0 24.1
2015-Aug-25 22:00N 43°06' E 009°36'2625.5 1016.6 22.9
2015-Aug-25 21:00N 43°30' E 009°24'2020.0 1017.1 22.5
2015-Aug-25 20:00N 43°48' E 009°12'2625.5 1017.1 22.1
2015-Aug-25 19:00N 44°12' E 009°00'12 2.0 1016.5 22.9
2015-Aug-25 13:00N 44°24' E 009°00'2424.4 1016.2 25.1
2015-Aug-25 12:00N 44°00' E 009°06'2625.5 1015.8 23.6
2015-Aug-25 11:00N 43°36' E 009°18'2625.5 1015.5 23.8
2015-Aug-25 10:00N 43°12' E 009°30'3131.3 1014.6 24.3
2015-Aug-25 09:00N 42°42' E 009°42'2424.4 1014.7 27.6
2015-Aug-25 08:00N 42°18' E 009°48'3030.0 1015.2 25.6
2015-Aug-25 07:00N 41°48' E 009°48'2424.0 1014.9 25.8
2015-Aug-25 06:00N 41°24' E 009°48'2625.6 1011.4 24.2
2015-Aug-25 05:00N 41°00' E 010°00'3030.0 1013.4 24.0
2015-Aug-25 04:00N 40°30' E 010°00'3030.3 1014.7 25.1
2015-Aug-25 03:00N 40°00' E 009°54'2424.4 1014.8 25.8
2015-Aug-25 02:00N 39°36' E 009°48'3030.0 1014.6 26.1
2015-Aug-25 01:00N 39°06' E 009°48'2625.8 1014.6 25.9
2015-Aug-25 00:00N 38°42' E 010°00'2625.8 1016.1 25.1
2015-Aug-24 23:00N 38°18' E 010°12'2424.5 1017.4 25.7
2015-Aug-24 22:00N 37°54' E 010°18'3131.5 1017.9 24.4
2015-Aug-24 21:00N 37°24' E 010°30'2424.5 1012.0 22.0
2015-Aug-24 20:00N 37°00' E 010°24'12 1.3 1015.5 28.0
2015-Aug-24 11:00N 36°48' E 010°24'1312.9 1013.9 31.9
2015-Aug-24 10:00N 37°00' E 010°30'2424.0 1013.8 29.2
2015-Aug-24 09:00N 37°24' E 010°30'2625.8 1013.9 28.0
2015-Aug-24 08:00N 37°48' E 010°18'2424.5 1013.8 26.4
2015-Aug-24 07:00N 38°12' E 010°12'2020.3 1012.7 25.1
2015-Aug-24 06:00N 38°30' E 010°00'1918.6 1012.1 25.2
2015-Aug-24 05:00N 38°48' E 009°54'1918.6 1011.4 24.9
2015-Aug-24 04:00N 39°06' E 009°48'1918.6 1011.3 25.2
2015-Aug-24 03:00N 39°24' E 009°54'2424.0 1011.0 25.8
2015-Aug-24 02:00N 39°48' E 009°54'2424.4 1010.5 25.9
2015-Aug-24 01:00N 40°12' E 010°00'4824.0 1010.2 26.0
2015-Aug-23 23:00N 41°00' E 010°00'1918.6 1010.2 25.9
2015-Aug-23 22:00N 41°18' E 009°54'2424.0 1010.8 24.6
2015-Aug-23 21:00N 41°42' E 009°54'2424.4 1010.3 24.7
2015-Aug-23 20:00N 42°06' E 009°48'2424.0 1011.0 24.6
2015-Aug-23 19:00N 42°30' E 009°48'1918.5 1010.9 25.1
2015-Aug-23 18:00N 42°48' E 009°42'2625.6 1009.9 24.6
2015-Aug-23 17:00N 43°12' E 009°30'1918.5 1009.8 24.6
2015-Aug-23 16:00N 43°30' E 009°24'2625.5 1011.1 24.7
2015-Aug-23 15:00N 43°54' E 009°12'2625.5 1012.2 24.1
2015-Aug-23 14:00N 44°18' E 009°00'7 1.5 1012.8 24.5
2015-Aug-23 09:00N 44°24' E 008°54'1312.7 1014.1 23.6
2015-Aug-23 08:00N 44°12' E 009°00'2727.3 1013.6 23.3
2015-Aug-23 07:00N 43°48' E 009°18'3131.2 1012.6 23.4
2015-Aug-23 06:00N 43°18' E 009°30'2424.4 1013.2 24.3
2015-Aug-23 05:00N 42°54' E 009°36'3030.3 1013.4 23.6
2015-Aug-23 04:00N 42°24' E 009°42'2424.4 1013.2 23.7
2015-Aug-23 03:00N 42°00' E 009°48'3030.3 1013.7 23.6
2015-Aug-23 02:00N 41°30' E 009°54'2424.4 1013.7 22.7
2015-Aug-23 01:00N 41°06' E 010°00'3030.0 1014.2 24.5
2015-Aug-23 00:00N 40°36' E 010°00'3030.3 1014.9 25.0
2015-Aug-22 23:00N 40°06' E 009°54'2424.0 1015.3 24.9
2015-Aug-22 22:00N 39°42' E 009°54'3030.4 1015.3 25.1
2015-Aug-22 21:00N 39°12' E 009°48'2625.7 1015.9 24.1
2015-Aug-22 20:00N 38°48' E 010°00'3030.4 1016.0 23.9
2015-Aug-22 19:00N 38°18' E 010°06'2625.8 1016.1 24.5
2015-Aug-22 18:00N 37°54' E 010°18'2625.8 1015.3 25.1
2015-Aug-22 17:00N 37°30' E 010°30'3030.0 1014.9 25.5
2015-Aug-22 16:00N 37°00' E 010°30'8 0.8 1013.3 26.1
2015-Aug-22 06:00N 36°54' E 010°24'2424.5 1018.2 23.4
2015-Aug-22 05:00N 37°18' E 010°30'1818.0 1018.4 23.9
2015-Aug-22 04:00N 37°36' E 010°30'2020.3 1018.4 23.8
2015-Aug-22 03:00N 37°54' E 010°18'1918.6 1018.3 23.2
2015-Aug-22 02:00N 38°12' E 010°12'2625.8 1018.4 23.4
2015-Aug-22 01:00N 38°36' E 010°00'2424.5 1018.3 23.7
2015-Aug-22 00:00N 39°00' E 009°54'2424.0 1018.1 24.4
2015-Aug-21 23:00N 39°24' E 009°54'2424.0 1018.4 25.0
2015-Aug-21 22:00N 39°48' E 009°54'2424.0 1018.9 25.4
2015-Aug-21 21:00N 40°12' E 009°54'1918.6 1019.1 25.5
2015-Aug-21 20:00N 40°30' E 010°00'1818.0 1019.6 24.8
2015-Aug-21 19:00N 40°48' E 010°00'2020.2 1018.7 24.6
2015-Aug-21 18:00N 41°06' E 009°48'2424.4 1018.8 23.5
2015-Aug-21 17:00N 41°30' E 009°42'2424.0 1018.3 25.0
2015-Aug-21 16:00N 41°54' E 009°42'1918.5 1018.9 25.7
2015-Aug-21 15:00N 42°12' E 009°48'2424.4 1019.2 25.6
2015-Aug-21 14:00N 42°36' E 009°42'2424.4 1019.5 26.0
2015-Aug-21 13:00N 43°00' E 009°36'2625.5 1019.9 25.7
2015-Aug-21 12:00N 43°24' E 009°24'1918.5 1020.4 25.3
2015-Aug-21 11:00N 43°42' E 009°18'2625.5 1020.6 24.8
2015-Aug-21 10:00N 44°06' E 009°06'2019.9 1020.5 25.2
2015-Aug-21 09:00N 44°24' E 008°54'4 0.3 1020.7 25.4
2015-Aug-20 19:00N 44°24' E 009°00'1918.5 1019.3 23.6
2015-Aug-20 18:00N 44°06' E 009°06'2625.5 1018.2 23.6
2015-Aug-20 17:00N 43°42' E 009°18'2625.5 1018.1 23.5
2015-Aug-20 16:00N 43°18' E 009°30'2424.4 1018.8 24.0
2015-Aug-20 15:00N 42°54' E 009°36'2424.4 1018.7 25.1
2015-Aug-20 14:00N 42°30' E 009°42'2424.4 1018.6 25.1
2015-Aug-20 13:00N 42°06' E 009°48'2424.4 1019.0 25.6
2015-Aug-20 12:00N 41°42' E 009°54'2424.0 1019.3 25.3
2015-Aug-20 11:00N 41°18' E 009°54'2424.0 1018.7 24.3
2015-Aug-20 10:00N 40°54' E 009°54'3030.3 1018.5 25.8
2015-Aug-20 09:00N 40°24' E 010°00'   1019.4 26.0

Dump ship's entire track history